createdAt,value
2018-07-21T00:00:48.699Z,16.40
2018-07-21T00:03:18.273Z,16.40
2018-07-21T00:05:47.964Z,16.30
2018-07-21T00:08:16.943Z,16.20
2018-07-21T00:10:46.016Z,16.20
2018-07-21T00:13:15.073Z,16.30
2018-07-21T00:15:44.115Z,16.30
2018-07-21T00:18:13.918Z,16.30
2018-07-21T00:20:42.927Z,16.20
2018-07-21T00:23:11.897Z,16.20
2018-07-21T00:25:40.989Z,16.20
2018-07-21T00:28:09.970Z,16.20
2018-07-21T00:30:38.991Z,16.20
2018-07-21T00:33:08.212Z,16.20
2018-07-21T00:38:06.029Z,16.00
2018-07-21T00:40:35.126Z,15.90
2018-07-21T00:43:04.125Z,16.00
2018-07-21T00:45:33.118Z,16.00
2018-07-21T00:48:02.659Z,16.00
2018-07-21T00:50:31.816Z,15.90
2018-07-21T00:53:00.836Z,15.90
2018-07-21T00:55:30.233Z,15.90
2018-07-21T00:57:59.220Z,15.90
2018-07-21T01:00:28.195Z,15.80
2018-07-21T01:05:25.792Z,15.70
2018-07-21T01:07:54.790Z,15.70
2018-07-21T01:10:23.783Z,15.60
2018-07-21T01:12:52.717Z,15.70
2018-07-21T01:15:21.717Z,15.70
2018-07-21T01:17:50.689Z,15.70
2018-07-21T01:20:19.963Z,15.80
2018-07-21T01:22:48.987Z,15.80
2018-07-21T01:25:18.080Z,15.70
2018-07-21T01:27:47.052Z,15.70
2018-07-21T01:30:16.056Z,15.60
2018-07-21T01:32:45.012Z,15.60
2018-07-21T01:35:13.978Z,15.70
2018-07-21T01:37:42.922Z,15.70
2018-07-21T01:40:11.933Z,15.60
2018-07-21T01:45:09.493Z,15.60
2018-07-21T01:47:38.430Z,15.50
2018-07-21T01:50:07.727Z,15.50
2018-07-21T01:52:36.693Z,15.40
2018-07-21T01:55:05.743Z,15.30
2018-07-21T01:57:34.819Z,15.30
2018-07-21T02:00:03.877Z,15.30
2018-07-21T02:02:32.939Z,15.30
2018-07-21T02:05:01.902Z,15.30
2018-07-21T02:07:30.920Z,15.20
2018-07-21T02:10:00.025Z,15.10
2018-07-21T02:12:29.121Z,15.10
2018-07-21T02:14:58.072Z,15.00
2018-07-21T02:17:27.056Z,15.00
2018-07-21T02:19:56.041Z,14.90
2018-07-21T02:22:25.012Z,14.90
2018-07-21T02:24:54.030Z,14.80
2018-07-21T02:27:23.128Z,14.80
2018-07-21T02:29:52.441Z,14.80
2018-07-21T02:32:21.409Z,14.80
2018-07-21T02:34:50.496Z,14.80
2018-07-21T02:37:19.469Z,14.80
2018-07-21T02:39:48.434Z,14.70
2018-07-21T02:42:17.408Z,14.70
2018-07-21T02:44:46.370Z,14.70
2018-07-21T02:47:15.359Z,14.70
2018-07-21T02:49:44.374Z,14.80
2018-07-21T02:52:13.357Z,14.80
2018-07-21T02:54:47.838Z,14.80
2018-07-21T02:57:16.794Z,14.80
2018-07-21T02:59:45.777Z,14.80
2018-07-21T03:02:14.824Z,14.80
2018-07-21T03:04:43.835Z,14.70
2018-07-21T03:07:12.894Z,14.70
2018-07-21T03:09:41.872Z,14.70
2018-07-21T03:12:11.208Z,14.60
2018-07-21T03:14:40.204Z,14.60
2018-07-21T03:17:09.268Z,14.70
2018-07-21T03:19:38.244Z,14.60
2018-07-21T03:22:07.261Z,14.60
2018-07-21T03:24:36.224Z,14.60
2018-07-21T03:27:05.386Z,14.60
2018-07-21T03:29:34.345Z,14.60
2018-07-21T03:32:03.677Z,14.50
2018-07-21T03:34:33.111Z,14.60
2018-07-21T03:37:02.099Z,14.60
2018-07-21T03:39:31.150Z,14.60
2018-07-21T03:42:00.247Z,14.70
2018-07-21T03:44:29.236Z,14.80
2018-07-21T03:46:58.228Z,14.80
2018-07-21T03:51:55.823Z,14.90
2018-07-21T03:54:24.822Z,14.90
2018-07-21T03:56:53.924Z,14.90
2018-07-21T03:59:22.943Z,14.90
2018-07-21T04:01:52.044Z,14.80
2018-07-21T04:04:22.014Z,14.80
2018-07-21T04:06:50.984Z,14.80
2018-07-21T04:09:20.460Z,14.90
2018-07-21T04:11:49.454Z,14.80
2018-07-21T04:14:18.511Z,14.80
2018-07-21T04:16:47.607Z,14.80
2018-07-21T04:19:16.668Z,14.80
2018-07-21T04:21:45.646Z,14.80
2018-07-21T04:24:14.678Z,14.80
2018-07-21T04:26:43.750Z,14.80
2018-07-21T04:29:12.707Z,14.90
2018-07-21T04:31:41.730Z,14.90
2018-07-21T04:34:10.829Z,14.90
2018-07-21T04:36:39.805Z,15.00
2018-07-21T04:39:10.407Z,15.00
2018-07-21T04:41:39.777Z,15.00
2018-07-21T04:44:08.874Z,15.00
2018-07-21T04:46:37.857Z,15.00
2018-07-21T04:49:06.871Z,15.00
2018-07-21T04:51:35.865Z,15.00
2018-07-21T04:54:04.865Z,15.10
2018-07-21T04:56:33.827Z,15.10
2018-07-21T04:59:02.818Z,15.20
2018-07-21T05:04:00.644Z,15.20
2018-07-21T05:06:30.426Z,15.20
2018-07-21T05:08:59.418Z,15.20
2018-07-21T05:11:28.423Z,15.30
2018-07-21T05:16:26.090Z,15.40
2018-07-21T05:18:55.077Z,15.50
2018-07-21T05:21:24.188Z,15.60
2018-07-21T05:23:53.179Z,15.60
2018-07-21T05:26:22.159Z,15.70
2018-07-21T05:28:51.214Z,15.80
2018-07-21T05:31:20.195Z,15.90
2018-07-21T05:33:49.173Z,16.00
2018-07-21T05:36:18.175Z,16.10
2018-07-21T05:38:47.654Z,16.20
2018-07-21T05:41:16.739Z,16.30
2018-07-21T05:43:45.832Z,16.40
2018-07-21T05:46:14.910Z,16.50
2018-07-21T05:48:43.946Z,16.60
2018-07-21T05:51:12.921Z,16.70
2018-07-21T05:53:41.988Z,16.90
2018-07-21T05:56:10.984Z,17.10
2018-07-21T05:58:39.987Z,17.30
2018-07-21T06:01:08.963Z,17.60
2018-07-21T06:06:06.543Z,17.90
2018-07-21T06:08:35.604Z,18.00
2018-07-21T06:11:04.590Z,18.00
2018-07-21T06:13:33.626Z,18.30
2018-07-21T06:16:02.693Z,18.60
2018-07-21T06:18:31.829Z,18.50
2018-07-21T06:21:00.973Z,18.30
2018-07-21T06:23:30.008Z,18.60
2018-07-21T06:25:58.967Z,18.90
2018-07-21T06:28:29.421Z,19.30
2018-07-21T06:30:58.441Z,20.30
2018-07-21T06:33:27.806Z,20.70
2018-07-21T06:35:58.056Z,20.70
2018-07-21T06:38:27.365Z,21.40
2018-07-21T06:40:56.484Z,22.00
2018-07-21T06:43:25.509Z,22.00
2018-07-21T06:48:23.326Z,22.10
2018-07-21T06:50:52.371Z,22.30
2018-07-21T06:53:21.576Z,23.30
2018-07-21T06:55:50.924Z,23.60
2018-07-21T06:58:20.164Z,24.30
2018-07-21T07:00:49.177Z,24.00
2018-07-21T07:03:18.130Z,24.70
2018-07-21T07:05:47.125Z,24.80
2018-07-21T07:08:16.091Z,25.20
2018-07-21T07:10:45.137Z,25.40
2018-07-21T07:13:14.181Z,24.70
2018-07-21T07:15:43.194Z,24.90
2018-07-21T07:18:12.580Z,25.10
2018-07-21T07:20:41.605Z,25.90
2018-07-21T07:23:11.204Z,26.20
2018-07-21T07:25:40.221Z,26.00
2018-07-21T07:28:09.232Z,26.90
2018-07-21T07:30:38.376Z,27.70
2018-07-21T07:33:07.363Z,27.00
2018-07-21T07:35:36.330Z,28.40
2018-07-21T07:38:06.068Z,28.10
2018-07-21T07:40:35.222Z,28.20
2018-07-21T07:43:04.228Z,29.00
2018-07-21T07:45:33.237Z,28.40
2018-07-21T07:48:02.264Z,29.10
2018-07-21T07:50:31.296Z,29.70
2018-07-21T07:53:00.542Z,30.90
2018-07-21T07:55:33.204Z,31.70
2018-07-21T07:58:03.836Z,29.50
2018-07-21T08:00:32.987Z,28.70
2018-07-21T08:03:02.524Z,28.40
2018-07-21T08:05:32.149Z,28.30
2018-07-21T08:08:01.250Z,28.00
2018-07-21T08:10:30.257Z,27.10
2018-07-21T08:12:59.229Z,27.80
2018-07-21T08:15:28.225Z,28.30
2018-07-21T08:17:57.335Z,27.70
2018-07-21T08:20:26.314Z,27.60
2018-07-21T08:22:55.272Z,28.50
2018-07-21T08:25:24.279Z,29.80
2018-07-21T08:27:53.524Z,30.20
2018-07-21T08:30:22.531Z,30.90
2018-07-21T08:32:51.587Z,29.60
2018-07-21T08:35:20.605Z,29.30
2018-07-21T08:37:49.578Z,30.60
2018-07-21T08:42:47.189Z,31.50
2018-07-21T08:45:16.157Z,30.30
2018-07-21T08:47:45.280Z,30.20
2018-07-21T08:50:14.283Z,30.70
2018-07-21T08:52:43.380Z,32.90
2018-07-21T08:55:12.493Z,31.40
2018-07-21T08:57:41.577Z,32.20
2018-07-21T09:00:10.616Z,30.70
2018-07-21T09:02:39.692Z,32.10
2018-07-21T09:05:08.667Z,32.20
2018-07-21T09:07:37.650Z,31.80
2018-07-21T09:10:06.763Z,31.00
2018-07-21T09:12:35.747Z,30.20
2018-07-21T09:15:04.826Z,30.30
2018-07-21T09:17:33.865Z,30.50
2018-07-21T09:20:02.944Z,31.60
2018-07-21T09:22:31.921Z,31.60
2018-07-21T09:25:00.921Z,31.10
2018-07-21T09:29:58.472Z,30.20
2018-07-21T09:32:30.284Z,30.80
2018-07-21T09:34:59.358Z,31.80
2018-07-21T09:37:28.388Z,32.50
2018-07-21T09:39:57.326Z,32.10
2018-07-21T09:42:26.293Z,32.60
2018-07-21T09:44:55.250Z,33.10
2018-07-21T09:47:24.311Z,34.80
2018-07-21T09:49:53.427Z,32.90
2018-07-21T09:52:22.460Z,32.00
2018-07-21T09:54:51.404Z,31.10
2018-07-21T09:57:20.437Z,30.70
2018-07-21T09:59:50.367Z,30.50
2018-07-21T10:02:19.347Z,30.90
2018-07-21T10:04:48.332Z,31.10
2018-07-21T10:07:17.450Z,31.60
2018-07-21T10:12:15.068Z,33.50
2018-07-21T10:14:44.555Z,33.90
2018-07-21T10:17:13.530Z,34.90
2018-07-21T10:19:42.492Z,35.20
2018-07-21T10:22:11.484Z,34.10
2018-07-21T10:24:45.881Z,33.70
2018-07-21T10:27:15.897Z,34.00
2018-07-21T10:29:44.937Z,33.90
2018-07-21T10:32:14.000Z,34.70
2018-07-21T10:34:42.983Z,33.90
2018-07-21T10:37:12.092Z,33.30
2018-07-21T10:39:41.163Z,35.30
2018-07-21T10:42:10.183Z,34.50
2018-07-21T10:44:39.372Z,34.00
2018-07-21T10:49:36.983Z,32.00
2018-07-21T10:52:05.955Z,31.60
2018-07-21T10:54:35.034Z,32.30
2018-07-21T10:57:04.028Z,32.10
2018-07-21T10:59:33.032Z,32.10
2018-07-21T11:02:02.047Z,31.40
2018-07-21T11:04:31.129Z,31.60
2018-07-21T11:07:00.182Z,32.50
2018-07-21T11:09:29.170Z,34.20
2018-07-21T11:11:58.255Z,32.80
2018-07-21T11:14:27.284Z,31.80
2018-07-21T11:16:56.275Z,31.90
2018-07-21T11:19:25.417Z,32.40
2018-07-21T11:21:54.475Z,32.70
2018-07-21T11:24:23.623Z,32.70
2018-07-21T11:26:52.739Z,32.50
2018-07-21T11:29:21.886Z,32.10
2018-07-21T11:31:50.883Z,32.20
2018-07-21T11:34:19.883Z,33.30
2018-07-21T11:36:48.980Z,34.30
2018-07-21T11:39:18.105Z,34.30
2018-07-21T11:41:47.112Z,34.10
2018-07-21T11:44:16.175Z,33.80
2018-07-21T11:46:45.161Z,34.10
2018-07-21T11:49:14.188Z,35.20
2018-07-21T11:51:43.264Z,34.80
2018-07-21T11:54:12.788Z,34.20
2018-07-21T11:56:41.979Z,33.90
2018-07-21T11:59:10.997Z,33.40
2018-07-21T12:01:39.969Z,33.60
2018-07-21T12:04:09.028Z,34.80
2018-07-21T12:06:38.033Z,35.10
2018-07-21T12:09:08.365Z,34.00
2018-07-21T12:11:37.350Z,33.70
2018-07-21T12:14:06.391Z,34.50
2018-07-21T12:16:35.436Z,34.80
2018-07-21T12:19:04.745Z,34.90
2018-07-21T12:21:33.766Z,35.20
2018-07-21T12:24:02.757Z,34.40
2018-07-21T12:26:31.746Z,34.00
2018-07-21T12:29:00.707Z,33.90
2018-07-21T12:31:29.811Z,33.70
2018-07-21T12:33:59.035Z,34.40
2018-07-21T12:36:28.265Z,34.00
2018-07-21T12:38:57.279Z,32.50
2018-07-21T12:41:26.450Z,31.90
2018-07-21T12:43:55.464Z,32.20
2018-07-21T12:46:24.723Z,31.60
2018-07-21T12:48:53.738Z,31.40
2018-07-21T12:51:22.762Z,30.80
2018-07-21T12:53:51.991Z,30.60
2018-07-21T12:56:21.021Z,30.80
2018-07-21T12:58:50.042Z,30.90
2018-07-21T13:01:20.143Z,31.20
2018-07-21T13:03:49.184Z,31.80
2018-07-21T13:06:18.212Z,31.80
2018-07-21T13:11:15.779Z,32.20
2018-07-21T13:13:45.117Z,31.80
2018-07-21T13:16:14.165Z,32.50
2018-07-21T13:18:43.174Z,32.50
2018-07-21T13:21:12.568Z,32.30
2018-07-21T13:23:41.580Z,31.80
2018-07-21T13:26:10.556Z,31.50
2018-07-21T13:28:39.531Z,31.40
2018-07-21T13:31:08.537Z,31.40
2018-07-21T13:33:37.521Z,31.60
2018-07-21T13:36:06.587Z,31.50
2018-07-21T13:38:35.573Z,31.70
2018-07-21T13:41:04.937Z,32.10
2018-07-21T13:43:33.933Z,32.20
2018-07-21T13:46:03.006Z,31.90
2018-07-21T13:48:31.980Z,32.40
2018-07-21T13:51:00.965Z,32.20
2018-07-21T13:53:29.914Z,32.70
2018-07-21T13:55:58.886Z,32.40
2018-07-21T13:58:27.879Z,32.50
2018-07-21T14:00:56.816Z,32.20
2018-07-21T14:03:25.798Z,31.90
2018-07-21T14:05:54.800Z,31.90
2018-07-21T14:08:23.822Z,31.70
2018-07-21T14:10:52.847Z,31.80
2018-07-21T14:13:21.886Z,31.60
2018-07-21T14:15:50.965Z,31.40
2018-07-21T14:18:20.084Z,31.20
2018-07-21T14:20:49.088Z,31.10
2018-07-21T14:23:18.163Z,31.70
2018-07-21T14:25:47.679Z,31.30
2018-07-21T14:28:16.662Z,31.20
2018-07-21T14:30:45.732Z,31.20
2018-07-21T14:35:43.409Z,31.20
2018-07-21T14:38:12.445Z,30.70
2018-07-21T14:40:41.447Z,30.50
2018-07-21T14:43:10.385Z,30.80
2018-07-21T14:45:39.419Z,30.80
2018-07-21T14:48:08.503Z,30.70
2018-07-21T14:50:37.607Z,30.70
2018-07-21T14:55:35.224Z,30.80
2018-07-21T14:58:04.267Z,31.40
2018-07-21T15:00:33.242Z,31.40
2018-07-21T15:03:02.223Z,31.20
2018-07-21T15:05:31.265Z,31.20
2018-07-21T15:08:00.251Z,31.20
2018-07-21T15:10:29.227Z,30.60
2018-07-21T15:12:58.247Z,30.60
2018-07-21T15:15:27.264Z,30.50
2018-07-21T15:20:24.817Z,30.20
2018-07-21T15:22:53.832Z,30.10
2018-07-21T15:25:22.847Z,29.90
2018-07-21T15:27:51.960Z,30.00
2018-07-21T15:30:21.046Z,30.20
2018-07-21T15:35:18.763Z,30.30
2018-07-21T15:37:47.759Z,30.30
2018-07-21T15:40:16.802Z,30.10
2018-07-21T15:42:45.753Z,30.10
2018-07-21T15:45:14.767Z,29.90
2018-07-21T15:47:44.158Z,29.70
2018-07-21T15:50:13.228Z,29.50
2018-07-21T15:55:10.945Z,29.40
2018-07-21T15:57:39.876Z,29.30
2018-07-21T16:00:08.953Z,29.20
2018-07-21T16:02:38.001Z,29.30
2018-07-21T16:07:35.735Z,29.10
2018-07-21T16:10:12.008Z,29.20
2018-07-21T16:12:40.964Z,29.30
2018-07-21T16:15:10.324Z,29.30
2018-07-21T16:17:39.302Z,29.00
2018-07-21T16:20:08.672Z,29.10
2018-07-21T16:22:37.661Z,28.80
2018-07-21T16:25:06.674Z,28.80
2018-07-21T16:27:35.656Z,28.90
2018-07-21T16:30:04.900Z,28.90
2018-07-21T16:32:34.033Z,28.70
2018-07-21T16:35:03.049Z,28.60
2018-07-21T16:37:32.148Z,28.40
2018-07-21T16:40:01.234Z,28.40
2018-07-21T16:42:30.225Z,28.30
2018-07-21T16:44:59.792Z,28.20
2018-07-21T16:47:28.788Z,28.20
2018-07-21T16:49:57.908Z,28.30
2018-07-21T16:52:26.907Z,28.20
2018-07-21T16:54:55.951Z,28.20
2018-07-21T16:57:24.947Z,28.20
2018-07-21T17:02:22.850Z,28.10
2018-07-21T17:04:51.940Z,28.10
2018-07-21T17:07:21.039Z,28.10
2018-07-21T17:09:50.081Z,28.10
2018-07-21T17:12:19.287Z,28.00
2018-07-21T17:14:48.384Z,27.90
2018-07-21T17:17:17.390Z,27.90
2018-07-21T17:19:46.379Z,27.90
2018-07-21T17:22:15.430Z,27.90
2018-07-21T17:24:44.448Z,27.90
2018-07-21T17:27:13.391Z,27.80
2018-07-21T17:29:42.381Z,27.80
2018-07-21T17:32:11.345Z,27.70
2018-07-21T17:34:40.361Z,27.70
2018-07-21T17:37:09.304Z,27.70
2018-07-21T17:39:38.307Z,27.70
2018-07-21T17:42:07.411Z,27.70
2018-07-21T17:44:36.509Z,27.70
2018-07-21T17:47:05.774Z,27.80
2018-07-21T17:49:34.795Z,27.80
2018-07-21T17:52:04.008Z,27.80
2018-07-21T17:54:33.013Z,27.70
2018-07-21T17:57:02.105Z,27.70
2018-07-21T17:59:31.106Z,27.70
2018-07-21T18:02:00.104Z,27.60
2018-07-21T18:04:30.012Z,27.40
2018-07-21T18:06:59.034Z,27.30
2018-07-21T18:09:28.052Z,27.20
2018-07-21T18:11:57.045Z,27.10
2018-07-21T18:14:26.026Z,27.10
2018-07-21T18:16:55.020Z,27.10
2018-07-21T18:19:23.996Z,27.00
2018-07-21T18:21:52.951Z,27.00
2018-07-21T18:24:21.911Z,26.90
2018-07-21T18:26:50.946Z,26.90
2018-07-21T18:29:19.962Z,26.90
2018-07-21T18:31:49.309Z,26.80
2018-07-21T18:34:18.383Z,26.70
2018-07-21T18:36:47.431Z,26.70
2018-07-21T18:39:16.562Z,26.60
2018-07-21T18:41:45.637Z,26.60
2018-07-21T18:44:14.620Z,26.50
2018-07-21T18:46:43.708Z,26.40
2018-07-21T18:49:12.705Z,26.40
2018-07-21T18:51:41.839Z,26.30
2018-07-21T18:54:10.844Z,26.30
2018-07-21T18:56:39.828Z,26.20
2018-07-21T18:59:08.795Z,26.20
2018-07-21T19:01:37.804Z,26.10
2018-07-21T19:04:06.863Z,26.00
2018-07-21T19:06:35.950Z,26.00
2018-07-21T19:09:07.824Z,25.90
2018-07-21T19:11:37.032Z,25.80
2018-07-21T19:14:06.323Z,25.70
2018-07-21T19:16:40.027Z,25.60
2018-07-21T19:19:09.241Z,25.60
2018-07-21T19:21:38.358Z,25.50
2018-07-21T19:24:07.353Z,25.40
2018-07-21T19:26:41.967Z,25.40
2018-07-21T19:29:11.041Z,25.30
2018-07-21T19:31:44.284Z,25.20
2018-07-21T19:34:13.272Z,25.20
2018-07-21T19:36:42.252Z,25.10
2018-07-21T19:39:11.385Z,25.00
2018-07-21T19:41:45.725Z,25.00
2018-07-21T19:44:14.708Z,24.90
2018-07-21T19:46:43.725Z,24.80
2018-07-21T19:49:12.785Z,24.80
2018-07-21T19:51:41.741Z,24.80
2018-07-21T19:54:10.795Z,24.70
2018-07-21T19:56:40.017Z,24.70
2018-07-21T19:59:09.015Z,24.60
2018-07-21T20:01:38.114Z,24.60
2018-07-21T20:04:07.256Z,24.50
2018-07-21T20:06:36.351Z,24.50
2018-07-21T20:09:09.039Z,24.40
2018-07-21T20:11:38.573Z,24.40
2018-07-21T20:14:07.794Z,24.30
2018-07-21T20:16:38.773Z,24.30
2018-07-21T20:19:07.903Z,24.20
2018-07-21T20:21:37.037Z,24.20
2018-07-21T20:24:06.279Z,24.20
2018-07-21T20:26:35.273Z,24.10
2018-07-21T20:29:04.344Z,24.00
2018-07-21T20:31:34.293Z,24.00
2018-07-21T20:34:03.498Z,24.00
2018-07-21T20:36:32.489Z,23.90
2018-07-21T20:39:02.462Z,23.80
2018-07-21T20:41:31.797Z,23.80
2018-07-21T20:44:01.273Z,23.80
2018-07-21T20:46:30.253Z,23.80
2018-07-21T20:48:59.346Z,23.70
2018-07-21T20:51:28.544Z,23.70
2018-07-21T20:53:57.606Z,23.60
2018-07-21T20:56:26.598Z,23.60
2018-07-21T20:58:55.590Z,23.60
2018-07-21T21:01:25.616Z,23.50
2018-07-21T21:03:54.594Z,23.50
2018-07-21T21:06:23.719Z,23.50
2018-07-21T21:08:52.756Z,23.50
2018-07-21T21:11:21.934Z,23.60
2018-07-21T21:13:50.909Z,23.60
2018-07-21T21:16:20.000Z,23.60
2018-07-21T21:18:49.071Z,23.60
2018-07-21T21:21:18.209Z,23.60
2018-07-21T21:23:47.281Z,23.50
2018-07-21T21:26:16.309Z,23.50
2018-07-21T21:28:45.398Z,23.50
2018-07-21T21:31:14.546Z,23.50
2018-07-21T21:33:43.581Z,23.40
2018-07-21T21:36:12.690Z,23.40
2018-07-21T21:38:41.712Z,23.40
2018-07-21T21:41:10.795Z,23.30
2018-07-21T21:43:40.248Z,23.20
2018-07-21T21:46:09.238Z,23.20
2018-07-21T21:48:38.289Z,23.20
2018-07-21T21:51:07.291Z,23.10
2018-07-21T21:53:36.405Z,23.00
2018-07-21T21:56:05.876Z,23.00
2018-07-21T21:58:34.921Z,23.00
2018-07-21T22:01:06.960Z,23.00
2018-07-21T22:03:36.259Z,23.00
2018-07-21T22:06:05.387Z,23.00
2018-07-21T22:08:34.641Z,22.90
2018-07-21T22:11:04.280Z,22.90
2018-07-21T22:13:33.345Z,22.90
2018-07-21T22:16:02.368Z,22.90
2018-07-21T22:18:31.745Z,22.90
2018-07-21T22:21:00.787Z,22.80
2018-07-21T22:23:29.770Z,22.80
2018-07-21T22:25:58.764Z,22.80
2018-07-21T22:28:27.867Z,22.70
2018-07-21T22:30:56.855Z,22.70
2018-07-21T22:33:25.845Z,22.60
2018-07-21T22:35:54.857Z,22.50
2018-07-21T22:38:23.839Z,22.50
2018-07-21T22:40:52.817Z,22.50
2018-07-21T22:43:22.056Z,22.40
2018-07-21T22:45:51.149Z,22.40
2018-07-21T22:48:20.226Z,22.40
2018-07-21T22:50:49.238Z,22.30
2018-07-21T22:53:18.229Z,22.30
2018-07-21T22:55:47.299Z,22.30
2018-07-21T22:58:16.336Z,22.30
2018-07-21T23:00:45.569Z,22.30
2018-07-21T23:03:15.436Z,22.30
2018-07-21T23:05:44.417Z,22.30
2018-07-21T23:08:13.406Z,22.30
2018-07-21T23:10:42.406Z,22.20
2018-07-21T23:13:11.467Z,22.20
2018-07-21T23:15:40.525Z,22.20
2018-07-21T23:18:09.537Z,22.10
2018-07-21T23:20:38.498Z,22.00
2018-07-21T23:23:07.476Z,22.00
2018-07-21T23:25:36.446Z,21.90
2018-07-21T23:28:05.429Z,21.80
2018-07-21T23:30:35.022Z,21.90
2018-07-21T23:33:04.056Z,21.80
2018-07-21T23:35:33.719Z,21.80
2018-07-21T23:40:31.307Z,21.80
2018-07-21T23:43:00.269Z,21.80
2018-07-21T23:45:29.252Z,21.80
2018-07-21T23:47:58.221Z,21.80
2018-07-21T23:50:27.315Z,21.80
2018-07-21T23:52:56.276Z,21.80
2018-07-21T23:55:25.227Z,21.80
2018-07-21T23:57:54.219Z,21.70
